Time,TemperatureF,DewpointF,PressureIn,WindDirection,WindDirectionDegrees,WindSpeedMPH,WindSpeedGustMPH,Humidity,HourlyPrecipIn,Conditions,Clouds,dailyrainin,SolarRadiationWatts/m^2,SoftwareType,DateUTC
2013-04-08 00:03:00,52.5,45.0,30.03,SW,227,14.0,-999.0,77,-99.99,,,0.00,0,weatherlink.com 1.10,2013-04-08 04:03:00,
2013-04-08 00:19:00,53.0,46.0,30.02,SSW,204,4.0,-999.0,76,-99.99,,,0.00,0,weatherlink.com 1.10,2013-04-08 04:19:00,
2013-04-08 00:33:00,53.2,45.0,30.02,SSW,197,4.0,-999.0,75,-99.99,,,0.00,0,weatherlink.com 1.10,2013-04-08 04:33:00,
2013-04-08 01:04:00,52.9,46.0,30.01,SW,217,3.0,-999.0,76,-99.99,,,0.00,0,weatherlink.com 1.10,2013-04-08 05:04:00,
2013-04-08 01:19:00,53.0,46.0,30.01,SW,218,1.0,-999.0,76,-99.99,,,0.00,0,weatherlink.com 1.10,2013-04-08 05:19:00,
2013-04-08 01:34:00,53.4,46.0,30.01,WSW,250,6.0,-999.0,75,-99.99,,,0.00,0,weatherlink.com 1.10,2013-04-08 05:34:00,
2013-04-08 01:49:00,53.8,46.0,30.00,SSW,207,3.0,-999.0,75,-99.99,,,0.00,0,weatherlink.com 1.10,2013-04-08 05:49:00,
2013-04-08 02:19:00,54.0,46.0,29.99,SSW,212,3.0,-999.0,74,-99.99,,,0.00,0,weatherlink.com 1.10,2013-04-08 06:19:00,
2013-04-08 02:34:00,54.3,46.0,29.99,SW,220,4.0,-999.0,73,-99.99,,,0.00,0,weatherlink.com 1.10,2013-04-08 06:34:00,
2013-04-08 02:49:00,54.3,46.0,29.99,SSW,205,1.0,-999.0,73,-99.99,,,0.00,0,weatherlink.com 1.10,2013-04-08 06:49:00,
2013-04-08 03:04:00,54.4,46.0,29.98,SSW,197,4.0,-999.0,73,-99.99,,,0.00,0,weatherlink.com 1.10,2013-04-08 07:04:00,
2013-04-08 03:19:00,54.1,46.0,29.98,SSW,201,3.0,-999.0,73,-99.99,,,0.00,0,weatherlink.com 1.10,2013-04-08 07:19:00,
2013-04-08 03:34:00,53.7,46.0,29.99,SSW,204,1.0,-999.0,74,-99.99,,,0.00,0,weatherlink.com 1.10,2013-04-08 07:34:00,
2013-04-08 03:49:00,53.3,46.0,29.99,SW,219,0.0,-999.0,75,-99.99,,,0.00,0,weatherlink.com 1.10,2013-04-08 07:49:00,
2013-04-08 04:04:00,52.8,45.0,29.99,WSW,254,2.0,-999.0,76,-99.99,,,0.00,0,weatherlink.com 1.10,2013-04-08 08:04:00,
2013-04-08 04:19:00,52.2,45.0,29.99,SW,226,2.0,-999.0,77,-99.99,,,0.00,0,weatherlink.com 1.10,2013-04-08 08:19:00,
2013-04-08 04:49:00,51.2,45.0,30.00,SSW,209,2.0,-999.0,79,-99.99,,,0.00,0,weatherlink.com 1.10,2013-04-08 08:49:00,
2013-04-08 05:04:00,50.9,45.0,30.00,SSW,210,0.0,-999.0,80,-99.99,,,0.00,0,weatherlink.com 1.10,2013-04-08 09:04:00,
2013-04-08 05:19:00,50.4,45.0,30.01,SSW,210,0.0,-999.0,81,-99.99,,,0.00,0,weatherlink.com 1.10,2013-04-08 09:19:00,
2013-04-08 05:34:00,49.9,45.0,30.01,SSW,210,0.0,-999.0,82,-99.99,,,0.00,0,weatherlink.com 1.10,2013-04-08 09:34:00,
2013-04-08 05:49:00,49.5,45.0,30.01,SSW,210,0.0,-999.0,83,-99.99,,,0.00,0,weatherlink.com 1.10,2013-04-08 09:49:00,
2013-04-08 06:04:00,48.6,44.0,30.02,SSW,210,0.0,-999.0,84,-99.99,,,0.00,0,weatherlink.com 1.10,2013-04-08 10:04:00,
2013-04-08 06:19:00,47.9,44.0,30.03,SSW,210,0.0,-999.0,85,-99.99,,,0.00,0,weatherlink.com 1.10,2013-04-08 10:19:00,
2013-04-08 06:34:00,47.6,44.0,30.03,SSW,210,0.0,-999.0,87,-99.99,,,0.00,5,weatherlink.com 1.10,2013-04-08 10:34:00,
2013-04-08 06:49:00,47.6,44.0,30.03,SSW,210,0.0,-999.0,88,-99.99,,,0.00,19,weatherlink.com 1.10,2013-04-08 10:49:00,
2013-04-08 07:04:00,48.2,45.0,30.05,SSW,210,1.0,-999.0,87,-99.99,,,0.00,46,weatherlink.com 1.10,2013-04-08 11:04:00,
2013-04-08 07:19:00,49.4,45.0,30.05,SSW,210,0.0,-999.0,85,-99.99,,,0.00,56,weatherlink.com 1.10,2013-04-08 11:19:00,
2013-04-08 07:34:00,50.7,46.0,30.05,SSW,210,0.0,-999.0,83,-99.99,,,0.00,91,weatherlink.com 1.10,2013-04-08 11:34:00,
2013-04-08 07:49:00,51.9,46.0,30.06,SSW,210,0.0,-999.0,81,-99.99,,,0.00,97,weatherlink.com 1.10,2013-04-08 11:49:00,
2013-04-08 08:05:00,53.0,47.0,30.06,SSW,210,1.0,-999.0,79,-99.99,,,0.00,132,weatherlink.com 1.10,2013-04-08 12:05:00,
2013-04-08 08:20:00,53.9,47.0,30.06,SSW,210,0.0,-999.0,77,-99.99,,,0.00,130,weatherlink.com 1.10,2013-04-08 12:20:00,
2013-04-08 08:35:00,55.2,47.0,30.05,SSW,213,0.0,-999.0,75,-99.99,,,0.00,118,weatherlink.com 1.10,2013-04-08 12:35:00,
2013-04-08 08:50:00,56.1,48.0,30.05,SSW,213,0.0,-999.0,73,-99.99,,,0.00,151,weatherlink.com 1.10,2013-04-08 12:50:00,
2013-04-08 09:05:00,57.0,48.0,30.05,SSW,213,1.0,-999.0,72,-99.99,,,0.00,243,weatherlink.com 1.10,2013-04-08 13:05:00,
2013-04-08 09:20:00,58.3,48.0,30.06,SSW,213,1.0,-999.0,68,-99.99,,,0.00,197,weatherlink.com 1.10,2013-04-08 13:20:00,
2013-04-08 09:35:00,59.5,48.0,30.06,SSW,213,1.0,-999.0,66,-99.99,,,0.00,214,weatherlink.com 1.10,2013-04-08 13:35:00,
2013-04-08 09:50:00,60.7,48.0,30.08,SSW,213,0.0,-999.0,64,-99.99,,,0.00,251,weatherlink.com 1.10,2013-04-08 13:50:00,
2013-04-08 10:05:00,62.7,48.0,30.08,SSW,213,0.0,-999.0,60,-99.99,,,0.00,719,weatherlink.com 1.10,2013-04-08 14:05:00,
2013-04-08 10:20:00,63.1,47.0,30.07,North,355,3.0,-999.0,56,-99.99,,,0.00,267,weatherlink.com 1.10,2013-04-08 14:20:00,
2013-04-08 10:35:00,63.9,47.0,30.08,NW,317,0.0,-999.0,55,-99.99,,,0.00,823,weatherlink.com 1.10,2013-04-08 14:35:00,
2013-04-08 10:50:00,64.8,47.0,30.08,NW,317,1.0,-999.0,53,-99.99,,,0.00,246,weatherlink.com 1.10,2013-04-08 14:50:00,
2013-04-08 11:05:00,64.2,47.0,30.08,WNW,302,0.0,-999.0,54,-99.99,,,0.00,308,weatherlink.com 1.10,2013-04-08 15:05:00,
2013-04-08 11:20:00,65.3,47.0,30.08,SW,229,1.0,-999.0,52,-99.99,,,0.00,788,weatherlink.com 1.10,2013-04-08 15:20:00,
2013-04-08 11:35:00,67.4,48.0,30.08,ESE,102,4.0,-999.0,50,-99.99,,,0.00,789,weatherlink.com 1.10,2013-04-08 15:35:00,
2013-04-08 11:50:00,68.4,49.0,30.08,ENE,74,1.0,-999.0,50,-99.99,,,0.00,946,weatherlink.com 1.10,2013-04-08 15:50:00,
2013-04-08 12:05:00,70.4,46.0,30.08,SSW,212,0.0,-999.0,42,-99.99,,,0.00,473,weatherlink.com 1.10,2013-04-08 16:05:00,
2013-04-08 12:20:00,71.8,47.0,30.07,WSW,240,3.0,-999.0,41,-99.99,,,0.00,981,weatherlink.com 1.10,2013-04-08 16:20:00,
2013-04-08 12:35:00,72.3,45.0,30.07,South,182,2.0,-999.0,38,-99.99,,,0.00,585,weatherlink.com 1.10,2013-04-08 16:35:00,
2013-04-08 12:50:00,74.0,47.0,30.06,SW,229,4.0,-999.0,39,-99.99,,,0.00,902,weatherlink.com 1.10,2013-04-08 16:50:00,
2013-04-08 13:05:00,73.2,46.0,30.06,West,263,4.0,-999.0,38,-99.99,,,0.00,874,weatherlink.com 1.10,2013-04-08 17:05:00,
2013-04-08 13:21:00,74.0,47.0,30.05,WSW,248,4.0,-999.0,39,-99.99,,,0.00,881,weatherlink.com 1.10,2013-04-08 17:21:00,
2013-04-08 13:36:00,74.9,48.0,30.04,WNW,303,3.0,-999.0,38,-99.99,,,0.00,882,weatherlink.com 1.10,2013-04-08 17:36:00,
2013-04-08 13:51:00,73.3,49.0,30.04,ENE,61,7.0,-999.0,42,-99.99,,,0.00,817,weatherlink.com 1.10,2013-04-08 17:51:00,
2013-04-08 14:06:00,71.8,48.0,30.04,ESE,115,4.0,-999.0,43,-99.99,,,0.00,793,weatherlink.com 1.10,2013-04-08 18:06:00,
2013-04-08 14:21:00,72.4,49.0,30.03,ESE,123,6.0,-999.0,43,-99.99,,,0.00,758,weatherlink.com 1.10,2013-04-08 18:21:00,
2013-04-08 14:36:00,71.5,48.0,30.03,ESE,105,1.0,-999.0,43,-99.99,,,0.00,759,weatherlink.com 1.10,2013-04-08 18:36:00,
2013-04-08 15:06:00,69.7,48.0,30.02,East,84,6.0,-999.0,46,-99.99,,,0.00,707,weatherlink.com 1.10,2013-04-08 19:06:00,
2013-04-08 15:21:00,69.8,47.0,30.02,ESE,115,2.0,-999.0,45,-99.99,,,0.00,244,weatherlink.com 1.10,2013-04-08 19:21:00,
2013-04-08 15:36:00,69.1,47.0,30.02,East,88,3.0,-999.0,46,-99.99,,,0.00,643,weatherlink.com 1.10,2013-04-08 19:36:00,
2013-04-08 16:06:00,70.1,48.0,30.01,South,185,6.0,-999.0,46,-99.99,,,0.00,561,weatherlink.com 1.10,2013-04-08 20:06:00,
2013-04-08 16:36:00,69.4,48.0,30.01,SSE,156,10.0,-999.0,46,-99.99,,,0.00,466,weatherlink.com 1.10,2013-04-08 20:36:00,
2013-04-08 18:21:00,68.9,50.0,30.00,East,81,0.0,-999.0,51,-99.99,,,0.00,91,weatherlink.com 1.10,2013-04-08 22:21:00,
2013-04-08 18:36:00,68.3,50.0,30.00,SE,135,5.0,-999.0,52,-99.99,,,0.00,54,weatherlink.com 1.10,2013-04-08 22:36:00,
2013-04-08 18:51:00,66.7,50.0,30.00,SSE,162,2.0,-999.0,55,-99.99,,,0.00,32,weatherlink.com 1.10,2013-04-08 22:51:00,
2013-04-08 19:06:00,65.1,50.0,30.00,SE,139,1.0,-999.0,58,-99.99,,,0.00,21,weatherlink.com 1.10,2013-04-08 23:06:00,
2013-04-08 19:21:00,64.2,49.0,30.01,SE,139,0.0,-999.0,59,-99.99,,,0.00,7,weatherlink.com 1.10,2013-04-08 23:21:00,
2013-04-08 19:36:00,62.7,50.0,30.01,ESE,120,0.0,-999.0,63,-99.99,,,0.00,0,weatherlink.com 1.10,2013-04-08 23:36:00,
2013-04-08 20:06:00,60.8,50.0,30.01,ESE,120,1.0,-999.0,68,-99.99,,,0.00,0,weatherlink.com 1.10,2013-04-09 00:06:00,
2013-04-08 20:21:00,60.3,50.0,30.01,SE,136,0.0,-999.0,69,-99.99,,,0.00,0,weatherlink.com 1.10,2013-04-09 00:21:00,
2013-04-08 20:36:00,59.9,49.0,30.02,South,176,4.0,-999.0,68,-99.99,,,0.00,0,weatherlink.com 1.10,2013-04-09 00:36:00,
2013-04-08 21:06:00,60.9,49.0,30.03,SSW,210,1.0,-999.0,65,-99.99,,,0.00,0,weatherlink.com 1.10,2013-04-09 01:06:00,
2013-04-08 21:21:00,60.7,49.0,30.02,South,187,2.0,-999.0,66,-99.99,,,0.00,0,weatherlink.com 1.10,2013-04-09 01:21:00,
2013-04-08 22:06:00,59.7,51.0,30.00,South,173,2.0,-999.0,72,-99.99,,,0.00,0,weatherlink.com 1.10,2013-04-09 02:06:00,
2013-04-08 22:21:00,59.6,51.0,30.00,SSW,198,2.0,-999.0,73,-99.99,,,0.00,0,weatherlink.com 1.10,2013-04-09 02:21:00,
2013-04-08 22:51:00,59.8,52.0,30.01,SW,217,1.0,-999.0,75,-99.99,,,0.00,0,weatherlink.com 1.10,2013-04-09 02:51:00,
2013-04-08 23:06:00,59.5,52.0,30.01,SSW,192,0.0,-999.0,76,-99.99,,,0.00,0,weatherlink.com 1.10,2013-04-09 03:06:00,
2013-04-08 23:21:00,59.1,52.0,30.00,SSW,193,0.0,-999.0,76,-99.99,,,0.00,0,weatherlink.com 1.10,2013-04-09 03:21:00,
2013-04-08 23:36:00,59.0,52.0,30.00,SSE,155,0.0,-999.0,77,-99.99,,,0.00,0,weatherlink.com 1.10,2013-04-09 03:36:00,
2013-04-08 23:51:00,58.7,52.0,29.99,SSE,155,1.0,-999.0,78,-99.99,,,0.00,0,weatherlink.com 1.10,2013-04-09 03:51:00,